Home > Products > Valid Products > TAF

000
FTUS44 KOHX 272330
TAFCSV
TAF
KCSV 272330Z 2800/2824 VRB06KT P6SM FEW060 BKN120
     FM280900 00000KT 3SM BR BKN120
     FM281300 17007KT P6SM SCT050 BKN100=



000
FTUS44 KOHX 272330
TAFBNA
TAF
KBNA 272330Z 2800/2824 26004KT P6SM FEW060 BKN120
     FM281200 19010KT P6SM VCSH BKN050 OVC120=



000
FTUS44 KOHX 272330
TAFCKV
TAF
KCKV 272330Z 2800/2824 21004KT P6SM FEW060 BKN120
     FM281200 20010KT P6SM VCSH BKN050 OVC120=



000
FTUS44 KOHX 272116 AAA
TAFBNA
TAF AMD
KBNA 272116Z 2721/2818 19008KT P6SM VCSH SCT060 BKN120 BKN200
     FM280000 16005KT P6SM BKN250
     FM281200 19010KT P6SM SCT050 OVC120=



000
FTUS44 KOHX 271126
TAFCKV
TAF
KCKV 271126Z 2712/2812 00000KT P6SM BKN120 OVC250
     FM271700 18008G16KT P6SM SCT120 BKN250
     FM272300 16005KT P6SM SCT120 BKN250=



000
FTUS44 KOHX 271126
TAFBNA
TAF
KBNA 271126Z 2712/2812 17005KT P6SM BKN250
     FM271700 18009G16KT P6SM BKN250
     FM280000 16005KT P6SM BKN250=



000
FTUS44 KOHX 271126
TAFCSV
TAF
KCSV 271126Z 2712/2812 00000KT 5SM BR SCT250
     FM271300 18006KT P6SM BKN250
     FM271800 18007KT P6SM SCT040 BKN250
     FM281100 00000KT 5SM BR SCT250=



000
FTUS44 KOHX 270126 AAB
TAFBNA
TAF AMD
KBNA 270126Z 2701/2724 07008KT P6SM VCSH BKN070
     FM270300 13007KT P6SM BKN100
     FM270500 17005KT P6SM SCT100 BKN250
     FM271700 18009G16KT P6SM BKN250=



000
FTUS44 KOHX 262358 AAA
TAFCSV
TAF AMD
KCSV 262358Z 2700/2724 03010KT P6SM VCTS BKN050CB
     FM270300 VRB04KT P6SM BKN150
     FM270900 00000KT 4SM BR SCT250
     FM271300 18007KT P6SM BKN150=



000
FTUS44 KOHX 262321
TAFCKV
TAF
KCKV 262321Z 2700/2724 08006KT 6SM -RA VCTS BKN050CB
     FM270300 12006KT P6SM VCSH SCT020 BKN110
     FM270900 17006KT 5SM BR SCT025 BKN120
     FM271200 19008KT P6SM BKN150=



000
FTUS44 KOHX 262321
TAFBNA
TAF
KBNA 262321Z 2700/2724 07009KT P6SM -RA VCTS FEW020 BKN040CB
     FM270300 13007KT P6SM VCSH BKN100
     FM270500 17005KT P6SM SCT100 BKN250
     FM271700 18009G16KT P6SM BKN250=



000
FTUS44 KOHX 262321
TAFCSV
TAF
KCSV 262321Z 2700/2724 VRB03KT P6SM BKN120
     FM270900 00000KT 4SM BR SCT250
     FM271300 18007KT P6SM BKN150=



000
FTUS44 KOHX 260545 AAA
TAFCSV
TAF AMD
KCSV 260545Z 2606/2706 25006KT P6SM VCSH SCT050 BKN100
      TEMPO 2608/2612 3SM -SHRA OVC050
     FM261200 22006KT P6SM SCT070=



000
FTUS44 KOHX 260520
TAFBNA
TAF
KBNA 260520Z 2606/2706 18006KT P6SM SCT070
      TEMPO 2610/2613 4SM BR SCT008=



000
FTUS44 KOHX 260520
TAFCKV
TAF
KCKV 260520Z 2606/2706 18005KT P6SM SCT060
      TEMPO 2610/2613 4SM BR SCT008
      AMD NOT SKED=



000
FTUS44 KOHX 251932 AAB
TAFCKV
TAF AMD
KCKV 251932Z 2520/2618 19008KT P6SM VCTS OVC035CB
      TEMPO 2520/2522 1/2SM TSRA BKN020 OVC030CB
     FM260000 18005KT P6SM BKN060=



000
FTUS44 KOHX 251918 AAA
TAFCKV
TAF AMD
KCKV 251918Z 2519/2618 19008KT P6SM VCTS OVC035CB
      TEMPO 2519/2521 2SM TSRA BR OVC030CB
     FM260000 18005KT P6SM BKN060=



000
FTUS44 KOHX 251720
TAFCSV
TAF
KCSV 251720Z 2518/2618 21006KT P6SM FEW060 BKN250=



000
FTUS44 KOHX 251720
TAFCKV
TAF
KCKV 251720Z 2518/2618 19006KT P6SM SCT045 BKN130
      TEMPO 2519/2523 5SM -SHRA OVC035=



000
FTUS44 KOHX 251720
TAFBNA
TAF
KBNA 251720Z 2518/2618 17008KT P6SM SCT080 BKN110 OVC250
      TEMPO 2522/2602 5SM -SHRA OVC035=



000
FTUS44 KOHX 251401 AAA
TAFCKV
TAF AMD
KCKV 251401Z 2514/2612 22003KT 3SM -RA FEW040 BKN080 OVC110
     FM251500 20008KT P6SM SCT100 BKN250
     FM260000 19004KT P6SM BKN250=



000
FTUS44 KOHX 251120
TAFCSV
TAF
KCSV 251120Z 2512/2612 19004KT P6SM BKN100
     FM251800 22008KT P6SM SCT100 BKN250
     FM260000 00000KT P6SM SCT250=



000
FTUS44 KOHX 251120
TAFBNA
TAF
KBNA 251120Z 2512/2612 18006KT P6SM VCSH SCT070 OVC110
     FM251600 19009KT P6SM SCT100 BKN250
     FM260000 18004KT P6SM BKN250=



000
FTUS44 KOHX 251120
TAFCKV
TAF
KCKV 251120Z 2512/2612 19005KT P6SM VCSH SCT060 OVC110
     FM251500 20008KT P6SM SCT100 BKN250
     FM260000 19004KT P6SM BKN250=



    US Dept of Commerce
    National Oceanic and Atmospheric Administration
    National Weather Service
    1325 East West Highway
    Silver Spring, MD 20910
    Page Author: NWS Internet Services Team
Disclaimer
Information Quality
Credits
Glossary
Privacy Policy
Freedom of Information Act (FOIA)
About Us
Career Opportunities